Amberjack — V7IT8 — position and weather

sailwx.info

Track history (hours):
 
Tides and Currents Weather Stations Pressure Air Temp Water Temp Dewpoint Dewpoint Depression Visibility Wind Speed Wind Dir Waves Ship Positions

Amberjack

Last reported at 2017-Sep-19 06:02 UTC. Time now 2017-Sep-22 02:40 UTC.
Position N 04°16' W 002°19'.

Length 230 m; draft 15.1 m.

Type: Tanker. MMSI: 538002451.

Date/timePositionNaut miles runAvg speedWind from/ knotsBaromVisibWave heightAir tempDewpointWater temp
2017-Sep-19 06:02N 04°16' W 002°19'012.8
2017-Sep-19 06:00N 04°16' W 002°18'712.8
2017-Sep-19 05:29N 04°18' W 002°12'612.7
2017-Sep-19 05:00N 04°21' W 002°06'612.6
2017-Sep-19 04:30N 04°23' W 002°00'612.7
2017-Sep-19 04:00N 04°25' W 001°54'11312.3
2017-Sep-18 18:47N 05°07' W 000°09'312.2
2017-Sep-18 18:30N 05°08' W 000°06'612.2
2017-Sep-18 18:00N 05°10' W 000°00'612.2
2017-Sep-18 17:30N 05°13' E 000°06'612.1
2017-Sep-18 17:00N 05°15' E 000°11'611.9
2017-Sep-18 16:30N 05°17' E 000°17'611.7
2017-Sep-18 16:00N 05°19' E 000°22'611.5
2017-Sep-18 15:30N 05°21' E 000°28'611.5
2017-Sep-18 15:00N 05°23' E 000°33'812.0
2017-Sep-18 14:18N 05°27' E 000°41'  
2017-Sep-13 23:25N 06°01' E 001°15'0 0.0
2017-Sep-13 22:01N 06°01' E 001°15'0 0.1
2017-Sep-13 21:52N 06°01' E 001°15'  
2017-Sep-10 01:07N 06°02' E 001°16'0 0.0
2017-Sep-10 00:58N 06°02' E 001°16'0 0.0
2017-Sep-10 00:27N 06°02' E 001°16'0 0.0
2017-Sep-09 23:36N 06°02' E 001°16'0 0.0
2017-Sep-09 23:30N 06°02' E 001°16'0 0.0
2017-Sep-09 22:55N 06°02' E 001°16'0 0.0
2017-Sep-09 22:25N 06°02' E 001°16'0 0.0
2017-Sep-09 22:00N 06°02' E 001°16'0 0.0
2017-Sep-09 21:27N 06°02' E 001°16'0 0.0
2017-Sep-09 20:10N 06°02' E 001°16'0 0.1
2017-Sep-09 20:01N 06°02' E 001°16'0 0.0
2017-Sep-09 19:12N 06°02' E 001°16'0 0.0
2017-Sep-09 19:01N 06°02' E 001°16'0 0.0
2017-Sep-09 18:27N 06°02' E 001°16'0 0.0
2017-Sep-09 17:51N 06°02' E 001°16'  
Track history (hours):
 
Tides and Currents Weather Stations Pressure Air Temp Water Temp Dewpoint Dewpoint Depression Visibility Wind Speed Wind Dir Waves Ship Positions

Amberjack

Last reported at 2017-Sep-19 06:02 UTC. Time now 2017-Sep-22 02:40 UTC.
Position N 04°16' W 002°19'.

Length 230 m; draft 15.1 m.

Type: Tanker. MMSI: 538002451.

Date/timePositionNaut miles runAvg speedWind from/ knotsBaromVisibWave heightAir tempDewpointWater temp
2017-Sep-19 06:02N 04°16' W 002°19'012.8
2017-Sep-19 06:00N 04°16' W 002°18'712.8
2017-Sep-19 05:29N 04°18' W 002°12'612.7
2017-Sep-19 05:00N 04°21' W 002°06'612.6
2017-Sep-19 04:30N 04°23' W 002°00'612.7
2017-Sep-19 04:00N 04°25' W 001°54'11312.3
2017-Sep-18 18:47N 05°07' W 000°09'312.2
2017-Sep-18 18:30N 05°08' W 000°06'612.2
2017-Sep-18 18:00N 05°10' W 000°00'612.2
2017-Sep-18 17:30N 05°13' E 000°06'612.1
2017-Sep-18 17:00N 05°15' E 000°11'611.9
2017-Sep-18 16:30N 05°17' E 000°17'611.7
2017-Sep-18 16:00N 05°19' E 000°22'611.5
2017-Sep-18 15:30N 05°21' E 000°28'611.5
2017-Sep-18 15:00N 05°23' E 000°33'812.0
2017-Sep-18 14:18N 05°27' E 000°41'  
2017-Sep-13 23:25N 06°01' E 001°15'0 0.0
2017-Sep-13 22:01N 06°01' E 001°15'0 0.1
2017-Sep-13 21:52N 06°01' E 001°15'  
2017-Sep-10 01:07N 06°02' E 001°16'0 0.0
2017-Sep-10 00:58N 06°02' E 001°16'0 0.0
2017-Sep-10 00:27N 06°02' E 001°16'0 0.0
2017-Sep-09 23:36N 06°02' E 001°16'0 0.0
2017-Sep-09 23:30N 06°02' E 001°16'0 0.0
2017-Sep-09 22:55N 06°02' E 001°16'0 0.0
2017-Sep-09 22:25N 06°02' E 001°16'0 0.0
2017-Sep-09 22:00N 06°02' E 001°16'0 0.0
2017-Sep-09 21:27N 06°02' E 001°16'0 0.0
2017-Sep-09 20:10N 06°02' E 001°16'0 0.1
2017-Sep-09 20:01N 06°02' E 001°16'0 0.0
2017-Sep-09 19:12N 06°02' E 001°16'0 0.0
2017-Sep-09 19:01N 06°02' E 001°16'0 0.0
2017-Sep-09 18:27N 06°02' E 001°16'0 0.0
2017-Sep-09 17:51N 06°02' E 001°16'  

Dump ship's entire track history